sensor_id;sensor_type;location;lat;lon;timestamp;P1;durP1;ratioP1;P2;durP2;ratioP2
3207;SDS011;1616;52.394;9.756;2022-11-15T00:01:49;18.13;;;12.80;;
3207;SDS011;1616;52.394;9.756;2022-11-15T00:04:14;16.27;;;12.70;;
3207;SDS011;1616;52.394;9.756;2022-11-15T00:06:40;16.87;;;13.20;;
3207;SDS011;1616;52.394;9.756;2022-11-15T00:09:05;17.63;;;12.23;;
3207;SDS011;1616;52.394;9.756;2022-11-15T00:11:31;16.10;;;12.10;;
3207;SDS011;1616;52.394;9.756;2022-11-15T00:13:58;15.80;;;12.30;;
3207;SDS011;1616;52.394;9.756;2022-11-15T00:16:27;19.60;;;12.43;;
3207;SDS011;1616;52.394;9.756;2022-11-15T00:18:52;16.27;;;12.17;;
3207;SDS011;1616;52.394;9.756;2022-11-15T00:21:18;16.27;;;12.00;;
3207;SDS011;1616;52.394;9.756;2022-11-15T00:23:43;17.37;;;12.07;;
3207;SDS011;1616;52.394;9.756;2022-11-15T00:26:11;16.57;;;12.13;;
3207;SDS011;1616;52.394;9.756;2022-11-15T00:28:38;16.80;;;12.60;;
3207;SDS011;1616;52.394;9.756;2022-11-15T00:31:05;13.80;;;10.93;;
3207;SDS011;1616;52.394;9.756;2022-11-15T00:33:32;17.07;;;12.37;;
3207;SDS011;1616;52.394;9.756;2022-11-15T00:36:03;14.30;;;11.43;;
3207;SDS011;1616;52.394;9.756;2022-11-15T00:38:32;20.03;;;11.97;;
3207;SDS011;1616;52.394;9.756;2022-11-15T00:40:59;15.07;;;11.63;;
3207;SDS011;1616;52.394;9.756;2022-11-15T00:43:25;15.30;;;11.90;;
3207;SDS011;1616;52.394;9.756;2022-11-15T00:45:52;19.50;;;12.27;;
3207;SDS011;1616;52.394;9.756;2022-11-15T00:48:18;18.47;;;11.30;;
3207;SDS011;1616;52.394;9.756;2022-11-15T00:50:43;14.33;;;11.97;;
3207;SDS011;1616;52.394;9.756;2022-11-15T00:53:09;16.40;;;12.73;;
3207;SDS011;1616;52.394;9.756;2022-11-15T00:55:35;16.60;;;12.10;;
3207;SDS011;1616;52.394;9.756;2022-11-15T00:58:02;13.20;;;11.80;;
3207;SDS011;1616;52.394;9.756;2022-11-15T01:00:28;13.33;;;10.83;;
3207;SDS011;1616;52.394;9.756;2022-11-15T01:02:54;14.20;;;10.67;;
3207;SDS011;1616;52.394;9.756;2022-11-15T01:05:19;19.97;;;11.03;;
3207;SDS011;1616;52.394;9.756;2022-11-15T01:07:45;12.13;;;10.93;;
3207;SDS011;1616;52.394;9.756;2022-11-15T01:10:11;14.30;;;9.90;;
3207;SDS011;1616;52.394;9.756;2022-11-15T01:12:37;13.20;;;10.93;;
3207;SDS011;1616;52.394;9.756;2022-11-15T01:15:03;11.90;;;10.37;;
3207;SDS011;1616;52.394;9.756;2022-11-15T01:17:30;13.63;;;10.17;;
3207;SDS011;1616;52.394;9.756;2022-11-15T01:19:56;10.53;;;9.53;;
3207;SDS011;1616;52.394;9.756;2022-11-15T01:22:22;10.10;;;9.10;;
3207;SDS011;1616;52.394;9.756;2022-11-15T01:24:51;11.80;;;10.47;;
3207;SDS011;1616;52.394;9.756;2022-11-15T01:27:16;14.77;;;10.23;;
3207;SDS011;1616;52.394;9.756;2022-11-15T01:29:43;15.33;;;9.23;;
3207;SDS011;1616;52.394;9.756;2022-11-15T01:32:08;9.43;;;8.53;;
3207;SDS011;1616;52.394;9.756;2022-11-15T01:34:34;11.83;;;9.40;;
3207;SDS011;1616;52.394;9.756;2022-11-15T01:37:00;14.50;;;9.63;;
3207;SDS011;1616;52.394;9.756;2022-11-15T01:39:26;12.67;;;9.57;;
3207;SDS011;1616;52.394;9.756;2022-11-15T01:41:52;9.90;;;8.93;;
3207;SDS011;1616;52.394;9.756;2022-11-15T01:47:00;10.80;;;9.73;;
3207;SDS011;1616;52.394;9.756;2022-11-15T01:49:31;10.10;;;8.93;;
3207;SDS011;1616;52.394;9.756;2022-11-15T01:51:59;12.37;;;9.97;;
3207;SDS011;1616;52.394;9.756;2022-11-15T01:54:27;14.50;;;10.07;;
3207;SDS011;1616;52.394;9.756;2022-11-15T01:56:54;11.03;;;9.97;;
3207;SDS011;1616;52.394;9.756;2022-11-15T01:59:24;20.70;;;10.27;;
3207;SDS011;1616;52.394;9.756;2022-11-15T02:01:51;12.30;;;10.17;;
3207;SDS011;1616;52.394;9.756;2022-11-15T02:04:19;9.87;;;8.70;;
3207;SDS011;1616;52.394;9.756;2022-11-15T02:06:46;13.33;;;9.40;;
3207;SDS011;1616;52.394;9.756;2022-11-15T02:09:14;9.67;;;8.77;;
3207;SDS011;1616;52.394;9.756;2022-11-15T02:11:40;14.17;;;10.30;;
3207;SDS011;1616;52.394;9.756;2022-11-15T02:14:06;11.33;;;9.00;;
3207;SDS011;1616;52.394;9.756;2022-11-15T02:32:50;16.00;;;9.00;;
3207;SDS011;1616;52.394;9.756;2022-11-15T02:38:22;14.00;;;9.10;;
3207;SDS011;1616;52.394;9.756;2022-11-15T02:41:41;10.60;;;8.43;;
3207;SDS011;1616;52.394;9.756;2022-11-15T02:44:12;9.83;;;8.73;;
3207;SDS011;1616;52.394;9.756;2022-11-15T02:49:37;12.07;;;9.53;;
3207;SDS011;1616;52.394;9.756;2022-11-15T02:52:08;9.47;;;8.70;;
3207;SDS011;1616;52.394;9.756;2022-11-15T02:54:34;10.10;;;9.20;;
3207;SDS011;1616;52.394;9.756;2022-11-15T02:57:07;14.90;;;8.90;;
3207;SDS011;1616;52.394;9.756;2022-11-15T03:05:24;10.30;;;9.30;;
3207;SDS011;1616;52.394;9.756;2022-11-15T03:08:27;11.57;;;9.90;;
3207;SDS011;1616;52.394;9.756;2022-11-15T03:11:16;15.37;;;10.40;;
3207;SDS011;1616;52.394;9.756;2022-11-15T03:16:19;10.43;;;8.50;;
3207;SDS011;1616;52.394;9.756;2022-11-15T03:19:06;32.83;;;10.20;;
3207;SDS011;1616;52.394;9.756;2022-11-15T03:21:47;12.73;;;9.53;;
3207;SDS011;1616;52.394;9.756;2022-11-15T03:24:14;9.97;;;9.17;;
3207;SDS011;1616;52.394;9.756;2022-11-15T03:26:43;9.73;;;8.93;;
3207;SDS011;1616;52.394;9.756;2022-11-15T03:29:15;9.60;;;8.40;;
3207;SDS011;1616;52.394;9.756;2022-11-15T03:31:47;10.57;;;9.47;;
3207;SDS011;1616;52.394;9.756;2022-11-15T03:34:50;9.37;;;8.50;;
3207;SDS011;1616;52.394;9.756;2022-11-15T03:37:12;8.13;;;7.40;;
3207;SDS011;1616;52.394;9.756;2022-11-15T03:39:39;11.27;;;8.30;;
3207;SDS011;1616;52.394;9.756;2022-11-15T03:47:27;7.97;;;7.20;;
3207;SDS011;1616;52.394;9.756;2022-11-15T03:50:17;9.27;;;8.33;;
3207;SDS011;1616;52.394;9.756;2022-11-15T03:52:44;7.97;;;7.37;;
3207;SDS011;1616;52.394;9.756;2022-11-15T03:55:14;9.33;;;8.53;;
3207;SDS011;1616;52.394;9.756;2022-11-15T03:57:42;8.27;;;7.37;;
3207;SDS011;1616;52.394;9.756;2022-11-15T04:00:09;7.00;;;6.40;;
3207;SDS011;1616;52.394;9.756;2022-11-15T04:02:36;7.57;;;6.53;;
3207;SDS011;1616;52.394;9.756;2022-11-15T04:05:02;7.87;;;7.10;;
3207;SDS011;1616;52.394;9.756;2022-11-15T04:07:28;8.40;;;7.20;;
3207;SDS011;1616;52.394;9.756;2022-11-15T04:09:54;8.27;;;7.63;;
3207;SDS011;1616;52.394;9.756;2022-11-15T04:12:31;7.43;;;6.60;;
3207;SDS011;1616;52.394;9.756;2022-11-15T04:15:02;7.40;;;5.97;;
3207;SDS011;1616;52.394;9.756;2022-11-15T04:17:37;6.67;;;6.07;;
3207;SDS011;1616;52.394;9.756;2022-11-15T04:20:05;6.30;;;5.80;;
3207;SDS011;1616;52.394;9.756;2022-11-15T04:22:53;10.13;;;6.37;;
3207;SDS011;1616;52.394;9.756;2022-11-15T04:25:42;5.10;;;4.60;;
3207;SDS011;1616;52.394;9.756;2022-11-15T04:28:09;6.33;;;5.70;;
3207;SDS011;1616;52.394;9.756;2022-11-15T04:30:36;6.57;;;4.97;;
3207;SDS011;1616;52.394;9.756;2022-11-15T04:33:02;6.53;;;6.03;;
3207;SDS011;1616;52.394;9.756;2022-11-15T04:35:28;5.23;;;4.90;;
3207;SDS011;1616;52.394;9.756;2022-11-15T04:37:54;9.20;;;5.07;;
3207;SDS011;1616;52.394;9.756;2022-11-15T04:40:21;4.90;;;4.47;;
3207;SDS011;1616;52.394;9.756;2022-11-15T04:42:47;5.90;;;5.33;;
3207;SDS011;1616;52.394;9.756;2022-11-15T04:45:13;5.90;;;4.90;;
3207;SDS011;1616;52.394;9.756;2022-11-15T04:47:39;5.00;;;4.70;;
3207;SDS011;1616;52.394;9.756;2022-11-15T04:50:04;6.23;;;5.10;;
3207;SDS011;1616;52.394;9.756;2022-11-15T04:52:30;7.23;;;5.17;;
3207;SDS011;1616;52.394;9.756;2022-11-15T04:54:56;6.13;;;5.63;;
3207;SDS011;1616;52.394;9.756;2022-11-15T04:57:22;7.60;;;4.47;;
3207;SDS011;1616;52.394;9.756;2022-11-15T04:59:47;4.60;;;4.23;;
3207;SDS011;1616;52.394;9.756;2022-11-15T05:02:13;6.67;;;4.57;;
3207;SDS011;1616;52.394;9.756;2022-11-15T05:04:39;8.10;;;4.40;;
3207;SDS011;1616;52.394;9.756;2022-11-15T05:07:04;4.93;;;4.50;;
3207;SDS011;1616;52.394;9.756;2022-11-15T05:09:30;5.00;;;4.47;;
3207;SDS011;1616;52.394;9.756;2022-11-15T05:11:56;4.07;;;3.63;;
3207;SDS011;1616;52.394;9.756;2022-11-15T05:14:21;5.87;;;3.67;;
3207;SDS011;1616;52.394;9.756;2022-11-15T05:16:47;4.37;;;3.97;;
3207;SDS011;1616;52.394;9.756;2022-11-15T05:19:12;3.40;;;3.20;;
3207;SDS011;1616;52.394;9.756;2022-11-15T05:21:38;3.80;;;3.60;;
3207;SDS011;1616;52.394;9.756;2022-11-15T05:24:04;4.73;;;4.33;;
3207;SDS011;1616;52.394;9.756;2022-11-15T05:26:30;3.73;;;3.53;;
3207;SDS011;1616;52.394;9.756;2022-11-15T05:28:56;4.17;;;3.87;;
3207;SDS011;1616;52.394;9.756;2022-11-15T05:31:24;6.00;;;5.40;;
3207;SDS011;1616;52.394;9.756;2022-11-15T05:33:50;3.63;;;3.43;;
3207;SDS011;1616;52.394;9.756;2022-11-15T05:39:00;6.60;;;3.97;;
3207;SDS011;1616;52.394;9.756;2022-11-15T05:41:29;4.43;;;4.10;;
3207;SDS011;1616;52.394;9.756;2022-11-15T05:44:07;3.17;;;2.90;;
3207;SDS011;1616;52.394;9.756;2022-11-15T05:46:35;8.63;;;3.80;;
3207;SDS011;1616;52.394;9.756;2022-11-15T05:49:04;5.17;;;4.83;;
3207;SDS011;1616;52.394;9.756;2022-11-15T05:51:32;4.47;;;4.17;;
3207;SDS011;1616;52.394;9.756;2022-11-15T05:53:58;4.17;;;3.87;;
3207;SDS011;1616;52.394;9.756;2022-11-15T05:56:26;4.70;;;4.50;;
3207;SDS011;1616;52.394;9.756;2022-11-15T05:58:53;5.07;;;4.57;;
3207;SDS011;1616;52.394;9.756;2022-11-15T06:01:20;7.67;;;6.17;;
3207;SDS011;1616;52.394;9.756;2022-11-15T06:03:46;8.93;;;5.07;;
3207;SDS011;1616;52.394;9.756;2022-11-15T06:06:12;6.20;;;4.43;;
3207;SDS011;1616;52.394;9.756;2022-11-15T06:08:37;4.73;;;4.43;;
3207;SDS011;1616;52.394;9.756;2022-11-15T06:11:03;5.13;;;4.83;;
3207;SDS011;1616;52.394;9.756;2022-11-15T06:13:30;5.10;;;4.70;;
3207;SDS011;1616;52.394;9.756;2022-11-15T06:15:56;10.03;;;5.03;;
3207;SDS011;1616;52.394;9.756;2022-11-15T06:18:22;4.97;;;4.57;;
3207;SDS011;1616;52.394;9.756;2022-11-15T06:20:49;5.40;;;5.00;;
3207;SDS011;1616;52.394;9.756;2022-11-15T06:23:15;6.73;;;4.77;;
3207;SDS011;1616;52.394;9.756;2022-11-15T06:25:41;6.77;;;5.17;;
3207;SDS011;1616;52.394;9.756;2022-11-15T06:28:06;9.90;;;6.10;;
3207;SDS011;1616;52.394;9.756;2022-11-15T06:30:32;5.07;;;4.67;;
3207;SDS011;1616;52.394;9.756;2022-11-15T06:32:59;5.73;;;5.23;;
3207;SDS011;1616;52.394;9.756;2022-11-15T06:35:29;5.10;;;4.60;;
3207;SDS011;1616;52.394;9.756;2022-11-15T06:38:01;6.10;;;5.50;;
3207;SDS011;1616;52.394;9.756;2022-11-15T06:40:35;4.00;;;3.70;;
3207;SDS011;1616;52.394;9.756;2022-11-15T06:43:03;4.80;;;4.47;;
3207;SDS011;1616;52.394;9.756;2022-11-15T06:45:29;5.33;;;4.50;;
3207;SDS011;1616;52.394;9.756;2022-11-15T06:47:55;4.83;;;4.43;;
3207;SDS011;1616;52.394;9.756;2022-11-15T06:50:21;5.73;;;5.23;;
3207;SDS011;1616;52.394;9.756;2022-11-15T06:52:48;5.87;;;5.20;;
3207;SDS011;1616;52.394;9.756;2022-11-15T06:55:14;6.40;;;5.27;;
3207;SDS011;1616;52.394;9.756;2022-11-15T06:57:49;5.20;;;4.90;;
3207;SDS011;1616;52.394;9.756;2022-11-15T07:00:16;7.93;;;4.47;;
3207;SDS011;1616;52.394;9.756;2022-11-15T07:02:44;5.33;;;4.83;;
3207;SDS011;1616;52.394;9.756;2022-11-15T07:05:10;5.13;;;4.83;;
3207;SDS011;1616;52.394;9.756;2022-11-15T07:07:36;6.00;;;5.60;;
3207;SDS011;1616;52.394;9.756;2022-11-15T07:10:02;7.57;;;4.97;;
3207;SDS011;1616;52.394;9.756;2022-11-15T07:12:28;6.00;;;5.40;;
3207;SDS011;1616;52.394;9.756;2022-11-15T07:14:54;5.13;;;4.60;;
3207;SDS011;1616;52.394;9.756;2022-11-15T07:17:19;4.73;;;3.83;;
3207;SDS011;1616;52.394;9.756;2022-11-15T07:19:45;4.07;;;3.73;;
3207;SDS011;1616;52.394;9.756;2022-11-15T07:22:11;5.33;;;4.90;;
3207;SDS011;1616;52.394;9.756;2022-11-15T07:24:37;3.80;;;3.60;;
3207;SDS011;1616;52.394;9.756;2022-11-15T07:27:02;3.73;;;3.43;;
3207;SDS011;1616;52.394;9.756;2022-11-15T07:29:28;3.53;;;3.23;;
3207;SDS011;1616;52.394;9.756;2022-11-15T07:31:54;3.80;;;3.60;;
3207;SDS011;1616;52.394;9.756;2022-11-15T07:34:20;3.97;;;3.67;;
3207;SDS011;1616;52.394;9.756;2022-11-15T07:36:45;3.80;;;3.50;;
3207;SDS011;1616;52.394;9.756;2022-11-15T07:39:11;6.67;;;3.60;;
3207;SDS011;1616;52.394;9.756;2022-11-15T07:41:37;6.90;;;3.23;;
3207;SDS011;1616;52.394;9.756;2022-11-15T07:44:04;3.10;;;2.90;;
3207;SDS011;1616;52.394;9.756;2022-11-15T07:46:30;3.90;;;3.30;;
3207;SDS011;1616;52.394;9.756;2022-11-15T07:48:56;3.30;;;3.10;;
3207;SDS011;1616;52.394;9.756;2022-11-15T07:51:22;3.70;;;3.40;;
3207;SDS011;1616;52.394;9.756;2022-11-15T07:53:47;3.87;;;3.67;;
3207;SDS011;1616;52.394;9.756;2022-11-15T07:56:13;5.00;;;3.70;;
3207;SDS011;1616;52.394;9.756;2022-11-15T07:58:39;4.53;;;3.30;;
3207;SDS011;1616;52.394;9.756;2022-11-15T08:01:09;6.17;;;4.03;;
3207;SDS011;1616;52.394;9.756;2022-11-15T08:03:35;6.63;;;3.20;;
3207;SDS011;1616;52.394;9.756;2022-11-15T08:06:02;3.77;;;3.57;;
3207;SDS011;1616;52.394;9.756;2022-11-15T08:08:28;3.20;;;3.00;;
3207;SDS011;1616;52.394;9.756;2022-11-15T08:10:53;5.87;;;3.40;;
3207;SDS011;1616;52.394;9.756;2022-11-15T08:13:19;4.90;;;3.77;;
3207;SDS011;1616;52.394;9.756;2022-11-15T08:15:46;4.87;;;3.70;;
3207;SDS011;1616;52.394;9.756;2022-11-15T08:18:13;4.00;;;3.70;;
3207;SDS011;1616;52.394;9.756;2022-11-15T08:20:40;3.23;;;2.73;;
3207;SDS011;1616;52.394;9.756;2022-11-15T08:23:07;3.63;;;2.73;;
3207;SDS011;1616;52.394;9.756;2022-11-15T08:25:35;6.60;;;3.40;;
3207;SDS011;1616;52.394;9.756;2022-11-15T08:28:03;2.73;;;2.53;;
3207;SDS011;1616;52.394;9.756;2022-11-15T08:30:30;2.73;;;2.50;;
3207;SDS011;1616;52.394;9.756;2022-11-15T08:32:59;4.80;;;2.77;;
3207;SDS011;1616;52.394;9.756;2022-11-15T08:35:25;3.03;;;2.83;;
3207;SDS011;1616;52.394;9.756;2022-11-15T08:37:52;3.30;;;2.67;;
3207;SDS011;1616;52.394;9.756;2022-11-15T08:40:18;2.97;;;2.47;;
3207;SDS011;1616;52.394;9.756;2022-11-15T08:42:45;6.40;;;2.70;;
3207;SDS011;1616;52.394;9.756;2022-11-15T08:45:11;6.33;;;2.57;;
3207;SDS011;1616;52.394;9.756;2022-11-15T08:47:37;3.03;;;2.83;;
3207;SDS011;1616;52.394;9.756;2022-11-15T08:50:03;2.40;;;2.20;;
3207;SDS011;1616;52.394;9.756;2022-11-15T08:52:29;2.70;;;2.40;;
3207;SDS011;1616;52.394;9.756;2022-11-15T08:54:55;3.93;;;2.60;;
3207;SDS011;1616;52.394;9.756;2022-11-15T08:57:22;2.33;;;2.13;;
3207;SDS011;1616;52.394;9.756;2022-11-15T08:59:47;2.73;;;2.53;;
3207;SDS011;1616;52.394;9.756;2022-11-15T09:02:13;3.27;;;2.70;;
3207;SDS011;1616;52.394;9.756;2022-11-15T09:04:43;2.63;;;2.43;;
3207;SDS011;1616;52.394;9.756;2022-11-15T09:07:09;5.03;;;2.43;;
3207;SDS011;1616;52.394;9.756;2022-11-15T09:09:36;3.77;;;1.87;;
3207;SDS011;1616;52.394;9.756;2022-11-15T09:12:02;2.13;;;2.03;;
3207;SDS011;1616;52.394;9.756;2022-11-15T09:14:28;3.77;;;2.50;;
3207;SDS011;1616;52.394;9.756;2022-11-15T09:16:54;3.03;;;2.20;;
3207;SDS011;1616;52.394;9.756;2022-11-15T09:19:20;3.47;;;2.03;;
3207;SDS011;1616;52.394;9.756;2022-11-15T09:21:46;2.53;;;1.90;;
3207;SDS011;1616;52.394;9.756;2022-11-15T09:24:12;2.13;;;2.03;;
3207;SDS011;1616;52.394;9.756;2022-11-15T09:26:37;2.57;;;1.97;;
3207;SDS011;1616;52.394;9.756;2022-11-15T09:29:03;1.97;;;1.87;;
3207;SDS011;1616;52.394;9.756;2022-11-15T09:31:29;2.90;;;2.00;;
3207;SDS011;1616;52.394;9.756;2022-11-15T09:33:55;1.80;;;1.70;;
3207;SDS011;1616;52.394;9.756;2022-11-15T09:36:21;4.73;;;1.90;;
3207;SDS011;1616;52.394;9.756;2022-11-15T09:38:46;2.77;;;2.57;;
3207;SDS011;1616;52.394;9.756;2022-11-15T09:43:42;1.80;;;1.70;;
3207;SDS011;1616;52.394;9.756;2022-11-15T09:48:57;3.50;;;1.93;;
3207;SDS011;1616;52.394;9.756;2022-11-15T09:56:40;2.10;;;1.90;;
3207;SDS011;1616;52.394;9.756;2022-11-15T10:01:56;4.13;;;1.70;;
3207;SDS011;1616;52.394;9.756;2022-11-15T10:04:26;2.23;;;1.93;;
3207;SDS011;1616;52.394;9.756;2022-11-15T10:07:03;2.30;;;2.20;;
3207;SDS011;1616;52.394;9.756;2022-11-15T10:09:46;2.70;;;2.03;;
3207;SDS011;1616;52.394;9.756;2022-11-15T10:12:17;3.47;;;1.90;;
3207;SDS011;1616;52.394;9.756;2022-11-15T10:14:45;2.23;;;2.00;;
3207;SDS011;1616;52.394;9.756;2022-11-15T10:17:34;5.00;;;1.87;;
3207;SDS011;1616;52.394;9.756;2022-11-15T10:27:47;1.93;;;1.73;;
3207;SDS011;1616;52.394;9.756;2022-11-15T10:30:18;1.97;;;1.73;;
3207;SDS011;1616;52.394;9.756;2022-11-15T10:32:44;1.70;;;1.60;;
3207;SDS011;1616;52.394;9.756;2022-11-15T10:35:16;3.20;;;1.97;;
3207;SDS011;1616;52.394;9.756;2022-11-15T10:37:43;2.10;;;1.90;;
3207;SDS011;1616;52.394;9.756;2022-11-15T10:40:17;1.70;;;1.60;;
3207;SDS011;1616;52.394;9.756;2022-11-15T10:42:48;3.17;;;2.10;;
3207;SDS011;1616;52.394;9.756;2022-11-15T10:45:29;3.27;;;1.70;;
3207;SDS011;1616;52.394;9.756;2022-11-15T10:50:37;2.43;;;1.70;;
3207;SDS011;1616;52.394;9.756;2022-11-15T10:53:04;2.87;;;1.50;;
3207;SDS011;1616;52.394;9.756;2022-11-15T10:55:37;2.03;;;1.60;;
3207;SDS011;1616;52.394;9.756;2022-11-15T10:58:55;3.30;;;1.40;;
3207;SDS011;1616;52.394;9.756;2022-11-15T11:01:32;2.80;;;1.37;;
3207;SDS011;1616;52.394;9.756;2022-11-15T11:06:27;1.60;;;1.50;;
3207;SDS011;1616;52.394;9.756;2022-11-15T11:09:03;1.57;;;1.47;;
3207;SDS011;1616;52.394;9.756;2022-11-15T11:11:46;2.40;;;1.53;;
3207;SDS011;1616;52.394;9.756;2022-11-15T11:22:12;1.70;;;1.60;;
3207;SDS011;1616;52.394;9.756;2022-11-15T11:24:52;2.00;;;1.57;;
3207;SDS011;1616;52.394;9.756;2022-11-15T11:30:04;3.73;;;1.73;;
3207;SDS011;1616;52.394;9.756;2022-11-15T11:35:14;1.90;;;1.70;;
3207;SDS011;1616;52.394;9.756;2022-11-15T11:40:49;2.80;;;1.67;;
3207;SDS011;1616;52.394;9.756;2022-11-15T11:48:42;1.67;;;1.50;;
3207;SDS011;1616;52.394;9.756;2022-11-15T11:51:27;1.80;;;1.70;;
3207;SDS011;1616;52.394;9.756;2022-11-15T11:54:05;2.87;;;1.60;;
3207;SDS011;1616;52.394;9.756;2022-11-15T11:56:51;4.07;;;1.80;;
3207;SDS011;1616;52.394;9.756;2022-11-15T11:59:42;3.90;;;1.83;;
3207;SDS011;1616;52.394;9.756;2022-11-15T12:02:19;1.60;;;1.50;;
3207;SDS011;1616;52.394;9.756;2022-11-15T12:04:50;1.87;;;1.70;;
3207;SDS011;1616;52.394;9.756;2022-11-15T12:07:25;1.87;;;1.70;;
3207;SDS011;1616;52.394;9.756;2022-11-15T12:10:01;1.70;;;1.60;;
3207;SDS011;1616;52.394;9.756;2022-11-15T12:13:02;2.90;;;2.07;;
3207;SDS011;1616;52.394;9.756;2022-11-15T12:18:44;1.67;;;1.57;;
3207;SDS011;1616;52.394;9.756;2022-11-15T12:21:16;1.60;;;1.50;;
3207;SDS011;1616;52.394;9.756;2022-11-15T12:23:51;3.77;;;1.90;;
3207;SDS011;1616;52.394;9.756;2022-11-15T12:26:22;1.60;;;1.50;;
3207;SDS011;1616;52.394;9.756;2022-11-15T12:28:55;2.97;;;1.80;;
3207;SDS011;1616;52.394;9.756;2022-11-15T12:34:16;2.10;;;2.00;;
3207;SDS011;1616;52.394;9.756;2022-11-15T12:36:54;4.10;;;1.80;;
3207;SDS011;1616;52.394;9.756;2022-11-15T12:39:20;2.70;;;1.60;;
3207;SDS011;1616;52.394;9.756;2022-11-15T12:52:03;5.20;;;2.17;;
3207;SDS011;1616;52.394;9.756;2022-11-15T13:17:44;2.67;;;1.70;;
3207;SDS011;1616;52.394;9.756;2022-11-15T13:28:11;3.00;;;2.20;;
3207;SDS011;1616;52.394;9.756;2022-11-15T13:30:53;2.20;;;2.00;;
3207;SDS011;1616;52.394;9.756;2022-11-15T13:33:34;1.93;;;1.77;;
3207;SDS011;1616;52.394;9.756;2022-11-15T13:36:03;2.00;;;1.90;;
3207;SDS011;1616;52.394;9.756;2022-11-15T13:38:34;2.47;;;2.27;;
3207;SDS011;1616;52.394;9.756;2022-11-15T13:41:18;4.20;;;2.03;;
3207;SDS011;1616;52.394;9.756;2022-11-15T13:43:45;2.53;;;2.33;;
3207;SDS011;1616;52.394;9.756;2022-11-15T13:46:13;2.00;;;1.90;;
3207;SDS011;1616;52.394;9.756;2022-11-15T13:48:42;2.07;;;1.87;;
3207;SDS011;1616;52.394;9.756;2022-11-15T13:51:21;2.83;;;2.60;;
3207;SDS011;1616;52.394;9.756;2022-11-15T13:53:55;2.33;;;1.87;;
3207;SDS011;1616;52.394;9.756;2022-11-15T13:56:24;2.47;;;2.00;;
3207;SDS011;1616;52.394;9.756;2022-11-15T13:58:52;2.20;;;1.80;;
3207;SDS011;1616;52.394;9.756;2022-11-15T14:01:20;2.13;;;1.80;;
3207;SDS011;1616;52.394;9.756;2022-11-15T14:03:54;2.43;;;1.83;;
3207;SDS011;1616;52.394;9.756;2022-11-15T14:06:23;4.07;;;2.33;;
3207;SDS011;1616;52.394;9.756;2022-11-15T14:11:34;2.40;;;2.00;;
3207;SDS011;1616;52.394;9.756;2022-11-15T14:19:05;1.97;;;1.87;;
3207;SDS011;1616;52.394;9.756;2022-11-15T14:21:34;2.00;;;1.80;;
3207;SDS011;1616;52.394;9.756;2022-11-15T14:26:43;2.00;;;1.80;;
3207;SDS011;1616;52.394;9.756;2022-11-15T14:29:42;1.53;;;1.43;;
3207;SDS011;1616;52.394;9.756;2022-11-15T14:34:44;1.80;;;1.70;;
3207;SDS011;1616;52.394;9.756;2022-11-15T14:39:54;2.73;;;2.20;;
3207;SDS011;1616;52.394;9.756;2022-11-15T14:42:21;1.83;;;1.53;;
3207;SDS011;1616;52.394;9.756;2022-11-15T14:44:47;1.63;;;1.53;;
3207;SDS011;1616;52.394;9.756;2022-11-15T14:47:13;4.97;;;1.90;;
3207;SDS011;1616;52.394;9.756;2022-11-15T14:49:39;1.80;;;1.70;;
3207;SDS011;1616;52.394;9.756;2022-11-15T14:54:51;2.37;;;1.70;;
3207;SDS011;1616;52.394;9.756;2022-11-15T14:57:16;1.70;;;1.60;;
3207;SDS011;1616;52.394;9.756;2022-11-15T14:59:42;2.33;;;1.83;;
3207;SDS011;1616;52.394;9.756;2022-11-15T15:02:13;2.10;;;1.90;;
3207;SDS011;1616;52.394;9.756;2022-11-15T15:04:42;3.60;;;1.90;;
3207;SDS011;1616;52.394;9.756;2022-11-15T15:07:07;2.10;;;2.00;;
3207;SDS011;1616;52.394;9.756;2022-11-15T15:09:33;2.63;;;2.43;;
3207;SDS011;1616;52.394;9.756;2022-11-15T15:12:00;2.27;;;2.00;;
3207;SDS011;1616;52.394;9.756;2022-11-15T15:14:26;3.70;;;1.70;;
3207;SDS011;1616;52.394;9.756;2022-11-15T15:16:51;5.43;;;1.93;;
3207;SDS011;1616;52.394;9.756;2022-11-15T15:19:17;2.20;;;2.00;;
3207;SDS011;1616;52.394;9.756;2022-11-15T15:21:42;2.30;;;1.97;;
3207;SDS011;1616;52.394;9.756;2022-11-15T15:24:13;1.70;;;1.60;;
3207;SDS011;1616;52.394;9.756;2022-11-15T15:26:39;3.67;;;1.60;;
3207;SDS011;1616;52.394;9.756;2022-11-15T15:29:05;4.83;;;1.73;;
3207;SDS011;1616;52.394;9.756;2022-11-15T15:31:33;2.20;;;2.00;;
3207;SDS011;1616;52.394;9.756;2022-11-15T15:33:59;2.10;;;1.90;;
3207;SDS011;1616;52.394;9.756;2022-11-15T15:36:25;3.63;;;2.00;;
3207;SDS011;1616;52.394;9.756;2022-11-15T15:38:50;4.10;;;2.07;;
3207;SDS011;1616;52.394;9.756;2022-11-15T15:41:17;2.47;;;1.70;;
3207;SDS011;1616;52.394;9.756;2022-11-15T15:43:43;1.70;;;1.50;;
3207;SDS011;1616;52.394;9.756;2022-11-15T15:46:13;9.53;;;2.07;;
3207;SDS011;1616;52.394;9.756;2022-11-15T15:48:41;2.13;;;1.93;;
3207;SDS011;1616;52.394;9.756;2022-11-15T15:51:07;1.97;;;1.83;;
3207;SDS011;1616;52.394;9.756;2022-11-15T15:53:33;3.30;;;2.20;;
3207;SDS011;1616;52.394;9.756;2022-11-15T15:56:00;3.00;;;1.80;;
3207;SDS011;1616;52.394;9.756;2022-11-15T15:58:26;2.60;;;1.90;;
3207;SDS011;1616;52.394;9.756;2022-11-15T16:00:52;1.97;;;1.87;;
3207;SDS011;1616;52.394;9.756;2022-11-15T16:03:18;1.83;;;1.73;;
3207;SDS011;1616;52.394;9.756;2022-11-15T16:05:44;2.03;;;1.83;;
3207;SDS011;1616;52.394;9.756;2022-11-15T16:08:27;2.53;;;2.33;;
3207;SDS011;1616;52.394;9.756;2022-11-15T16:10:54;3.20;;;2.43;;
3207;SDS011;1616;52.394;9.756;2022-11-15T16:13:20;2.53;;;2.33;;
3207;SDS011;1616;52.394;9.756;2022-11-15T16:15:46;3.53;;;1.90;;
3207;SDS011;1616;52.394;9.756;2022-11-15T16:18:16;4.63;;;2.30;;
3207;SDS011;1616;52.394;9.756;2022-11-15T16:20:46;2.60;;;2.40;;
3207;SDS011;1616;52.394;9.756;2022-11-15T16:23:16;3.60;;;2.50;;
3207;SDS011;1616;52.394;9.756;2022-11-15T16:25:52;4.87;;;3.10;;
3207;SDS011;1616;52.394;9.756;2022-11-15T16:31:07;3.23;;;2.97;;
3207;SDS011;1616;52.394;9.756;2022-11-15T16:33:34;2.77;;;2.57;;
3207;SDS011;1616;52.394;9.756;2022-11-15T16:36:01;3.10;;;2.90;;
3207;SDS011;1616;52.394;9.756;2022-11-15T16:38:27;4.47;;;3.13;;
3207;SDS011;1616;52.394;9.756;2022-11-15T16:40:53;4.63;;;3.53;;
3207;SDS011;1616;52.394;9.756;2022-11-15T16:43:19;4.83;;;4.20;;
3207;SDS011;1616;52.394;9.756;2022-11-15T16:45:45;4.73;;;4.20;;
3207;SDS011;1616;52.394;9.756;2022-11-15T16:48:19;5.53;;;5.03;;
3207;SDS011;1616;52.394;9.756;2022-11-15T16:50:46;5.73;;;5.20;;
3207;SDS011;1616;52.394;9.756;2022-11-15T16:53:12;7.00;;;4.97;;
3207;SDS011;1616;52.394;9.756;2022-11-15T16:55:37;6.67;;;4.80;;
3207;SDS011;1616;52.394;9.756;2022-11-15T16:58:03;6.27;;;5.57;;
3207;SDS011;1616;52.394;9.756;2022-11-15T17:00:29;12.43;;;5.60;;
3207;SDS011;1616;52.394;9.756;2022-11-15T17:02:54;8.37;;;6.37;;
3207;SDS011;1616;52.394;9.756;2022-11-15T17:05:22;6.90;;;6.17;;
3207;SDS011;1616;52.394;9.756;2022-11-15T17:07:49;6.43;;;5.83;;
3207;SDS011;1616;52.394;9.756;2022-11-15T17:10:18;11.50;;;6.17;;
3207;SDS011;1616;52.394;9.756;2022-11-15T17:12:49;6.90;;;6.03;;
3207;SDS011;1616;52.394;9.756;2022-11-15T17:15:15;8.50;;;5.47;;
3207;SDS011;1616;52.394;9.756;2022-11-15T17:17:41;6.37;;;5.77;;
3207;SDS011;1616;52.394;9.756;2022-11-15T17:20:15;9.20;;;6.60;;
3207;SDS011;1616;52.394;9.756;2022-11-15T17:22:42;10.10;;;6.00;;
3207;SDS011;1616;52.394;9.756;2022-11-15T17:25:08;11.53;;;6.23;;
3207;SDS011;1616;52.394;9.756;2022-11-15T17:27:34;6.60;;;6.17;;
3207;SDS011;1616;52.394;9.756;2022-11-15T17:30:00;11.90;;;6.40;;
3207;SDS011;1616;52.394;9.756;2022-11-15T17:32:26;10.60;;;6.80;;
3207;SDS011;1616;52.394;9.756;2022-11-15T17:34:51;8.43;;;6.70;;
3207;SDS011;1616;52.394;9.756;2022-11-15T17:37:17;8.37;;;7.27;;
3207;SDS011;1616;52.394;9.756;2022-11-15T17:39:43;8.73;;;7.83;;
3207;SDS011;1616;52.394;9.756;2022-11-15T17:42:09;19.90;;;6.33;;
3207;SDS011;1616;52.394;9.756;2022-11-15T17:44:34;13.53;;;7.40;;
3207;SDS011;1616;52.394;9.756;2022-11-15T17:47:00;9.53;;;7.03;;
3207;SDS011;1616;52.394;9.756;2022-11-15T17:49:26;7.87;;;6.97;;
3207;SDS011;1616;52.394;9.756;2022-11-15T17:51:51;7.00;;;6.50;;
3207;SDS011;1616;52.394;9.756;2022-11-15T17:54:17;8.20;;;7.50;;
3207;SDS011;1616;52.394;9.756;2022-11-15T17:56:43;10.93;;;7.00;;
3207;SDS011;1616;52.394;9.756;2022-11-15T17:59:09;21.60;;;8.07;;